createdAt,value
2019-02-10T00:02:04.886Z,16.87
2019-02-10T00:05:07.983Z,14.20
2019-02-10T00:08:11.066Z,14.37
2019-02-10T00:11:14.167Z,14.60
2019-02-10T00:14:17.260Z,10.90
2019-02-10T00:17:20.345Z,11.90
2019-02-10T00:20:23.437Z,13.70
2019-02-10T00:23:26.535Z,15.17
2019-02-10T00:26:29.627Z,15.27
2019-02-10T00:29:32.813Z,15.63
2019-02-10T00:32:35.908Z,15.20
2019-02-10T00:35:39.018Z,16.87
2019-02-10T00:38:42.191Z,14.97
2019-02-10T00:41:45.275Z,11.73
2019-02-10T00:44:48.379Z,14.90
2019-02-10T00:47:51.450Z,12.23
2019-02-10T00:50:54.847Z,10.83
2019-02-10T00:53:57.961Z,10.20
2019-02-10T00:57:01.055Z,10.67
2019-02-10T01:00:04.200Z,13.23
2019-02-10T01:03:07.340Z,11.30
2019-02-10T01:06:10.415Z,12.53
2019-02-10T01:09:13.524Z,10.57
2019-02-10T01:12:16.605Z,16.17
2019-02-10T01:15:19.700Z,10.27
2019-02-10T01:18:22.785Z,11.47
2019-02-10T01:21:25.875Z,11.90
2019-02-10T01:24:28.972Z,13.23
2019-02-10T01:27:32.079Z,13.90
2019-02-10T01:30:35.172Z,10.90
2019-02-10T01:33:38.351Z,8.73
2019-02-10T01:36:49.217Z,9.57
2019-02-10T01:39:44.547Z,10.80
2019-02-10T01:42:49.127Z,13.17
2019-02-10T01:45:52.261Z,11.83
2019-02-10T01:48:55.349Z,12.13
2019-02-10T01:51:58.450Z,11.00
2019-02-10T01:55:01.541Z,9.57
2019-02-10T01:58:04.635Z,10.50
2019-02-10T02:01:07.717Z,8.83
2019-02-10T02:04:10.817Z,9.93
2019-02-10T02:07:13.895Z,12.10
2019-02-10T02:10:17.004Z,11.40
2019-02-10T02:13:20.070Z,12.60
2019-02-10T02:16:23.197Z,10.20
2019-02-10T02:19:26.276Z,11.30
2019-02-10T02:22:29.371Z,10.73
2019-02-10T02:25:32.547Z,12.13
2019-02-10T02:28:35.643Z,8.33
2019-02-10T02:31:38.751Z,12.73
2019-02-10T02:34:41.816Z,11.33
2019-02-10T02:37:44.932Z,11.97
2019-02-10T02:40:48.007Z,11.20
2019-02-10T02:43:51.109Z,9.47
2019-02-10T02:46:54.202Z,10.50
2019-02-10T02:49:57.279Z,8.63
2019-02-10T02:53:00.388Z,12.10
2019-02-10T02:56:03.488Z,8.63
2019-02-10T02:59:06.560Z,8.53
2019-02-10T03:02:09.652Z,9.97
2019-02-10T03:05:12.753Z,9.03
2019-02-10T03:08:15.811Z,8.63
2019-02-10T03:11:18.889Z,10.40
2019-02-10T03:14:22.041Z,10.27
2019-02-10T03:17:25.230Z,9.90
2019-02-10T03:20:28.318Z,11.77
2019-02-10T03:23:31.402Z,11.03
2019-02-10T03:26:34.494Z,12.10
2019-02-10T03:29:37.585Z,9.93
2019-02-10T03:32:40.718Z,8.07
2019-02-10T03:35:43.784Z,9.63
2019-02-10T03:38:46.873Z,9.20
2019-02-10T03:41:49.963Z,7.40
2019-02-10T03:44:53.262Z,9.20
2019-02-10T03:47:56.350Z,8.23
2019-02-10T03:50:59.453Z,8.43
2019-02-10T03:54:02.497Z,8.13
2019-02-10T03:57:05.551Z,6.47
2019-02-10T04:00:08.880Z,6.80
2019-02-10T04:03:11.947Z,9.23
2019-02-10T04:06:15.103Z,10.80
2019-02-10T04:09:18.168Z,7.80
2019-02-10T04:12:21.283Z,6.03
2019-02-10T04:15:24.382Z,9.07
2019-02-10T04:18:27.475Z,4.67
2019-02-10T04:21:30.541Z,10.17
2019-02-10T04:24:34.682Z,7.57
2019-02-10T04:27:38.026Z,7.77
2019-02-10T04:30:41.092Z,9.27
2019-02-10T04:33:44.254Z,6.77
2019-02-10T04:36:47.350Z,8.63
2019-02-10T04:39:50.442Z,5.37
2019-02-10T04:42:53.532Z,5.43
2019-02-10T04:45:56.604Z,5.90
2019-02-10T04:48:59.738Z,6.83
2019-02-10T04:52:02.821Z,5.90
2019-02-10T04:55:06.059Z,3.63
2019-02-10T04:58:09.203Z,6.90
2019-02-10T05:01:12.297Z,6.73
2019-02-10T05:04:15.399Z,5.07
2019-02-10T05:07:18.467Z,3.93
2019-02-10T05:10:21.866Z,5.30
2019-02-10T05:13:24.666Z,6.00
2019-02-10T05:16:27.724Z,4.23
2019-02-10T05:19:30.852Z,4.63
2019-02-10T05:22:33.932Z,3.60
2019-02-10T05:25:37.038Z,4.10
2019-02-10T05:28:40.130Z,4.93
2019-02-10T05:31:43.229Z,4.87
2019-02-10T05:34:46.308Z,4.17
2019-02-10T05:37:49.400Z,3.73
2019-02-10T05:40:52.487Z,5.47
2019-02-10T05:43:55.579Z,5.67
2019-02-10T05:46:58.671Z,4.73
2019-02-10T05:50:01.768Z,3.10
2019-02-10T05:53:04.899Z,3.23
2019-02-10T05:56:08.058Z,5.20
2019-02-10T05:59:11.139Z,3.77
2019-02-10T06:02:23.009Z,5.03
2019-02-10T06:05:27.832Z,5.73
2019-02-10T06:08:30.922Z,3.23
2019-02-10T06:11:34.066Z,4.97
2019-02-10T06:14:37.158Z,2.83
2019-02-10T06:17:40.250Z,4.37
2019-02-10T06:20:43.334Z,5.47
2019-02-10T06:23:46.439Z,3.00
2019-02-10T06:26:49.534Z,3.13
2019-02-10T06:29:52.618Z,6.30
2019-02-10T06:32:55.725Z,5.43
2019-02-10T06:35:59.796Z,4.73
2019-02-10T06:39:02.976Z,5.20
2019-02-10T06:42:06.118Z,4.23
2019-02-10T06:45:11.552Z,4.23
2019-02-10T06:48:14.663Z,3.70
2019-02-10T06:51:17.724Z,4.43
2019-02-10T06:54:20.798Z,5.07
2019-02-10T06:57:26.067Z,2.70
2019-02-10T07:01:01.362Z,3.90
2019-02-10T07:04:11.579Z,3.47
2019-02-10T07:07:14.660Z,5.30
2019-02-10T07:10:17.904Z,3.50
2019-02-10T07:13:29.387Z,4.33
2019-02-10T07:16:35.967Z,4.10
2019-02-10T07:19:50.396Z,4.23
2019-02-10T07:22:56.227Z,3.97
2019-02-10T07:26:01.155Z,2.90
2019-02-10T07:29:17.158Z,3.43
2019-02-10T07:32:25.082Z,4.60
2019-02-10T07:37:42.324Z,4.67
2019-02-10T07:40:59.141Z,2.57
2019-02-10T07:44:16.561Z,4.10
2019-02-10T07:47:34.484Z,3.63
2019-02-10T07:51:55.815Z,2.27
2019-02-10T07:55:28.961Z,5.73
2019-02-10T07:58:42.063Z,3.57
2019-02-10T08:04:03.216Z,2.30
2019-02-10T08:07:25.583Z,3.70
2019-02-10T08:12:44.000Z,6.27
2019-02-10T08:16:01.824Z,3.60
2019-02-10T08:19:45.643Z,3.87
2019-02-10T08:23:00.771Z,3.47
2019-02-10T08:26:53.524Z,2.97
2019-02-10T08:30:06.925Z,2.17
2019-02-10T08:33:53.456Z,3.87
2019-02-10T08:37:22.302Z,2.07
2019-02-10T08:40:39.464Z,1.33
2019-02-10T08:43:50.552Z,1.30
2019-02-10T08:49:05.688Z,3.60
2019-02-10T08:53:22.573Z,1.40
2019-02-10T08:56:25.650Z,3.73
2019-02-10T08:59:28.736Z,1.27
2019-02-10T09:02:31.839Z,1.10
2019-02-10T09:05:34.927Z,1.33
2019-02-10T09:08:38.019Z,2.43
2019-02-10T09:11:41.094Z,2.60
2019-02-10T09:14:44.204Z,1.37
2019-02-10T09:17:47.378Z,1.90
2019-02-10T09:20:50.484Z,1.47
2019-02-10T09:23:53.549Z,1.27
2019-02-10T09:26:56.669Z,1.37
2019-02-10T09:29:59.771Z,1.13
2019-02-10T09:33:02.863Z,1.67
2019-02-10T09:36:05.938Z,1.47
2019-02-10T09:39:10.957Z,3.37
2019-02-10T09:42:12.239Z,1.90
2019-02-10T09:45:15.339Z,2.03
2019-02-10T09:48:18.508Z,1.27
2019-02-10T09:51:21.609Z,1.30
2019-02-10T09:54:24.703Z,2.07
2019-02-10T09:57:27.794Z,2.47
2019-02-10T10:00:30.919Z,2.03
2019-02-10T10:03:33.987Z,1.20
2019-02-10T10:06:37.069Z,1.67
2019-02-10T10:09:40.272Z,2.37
2019-02-10T10:12:43.356Z,1.37
2019-02-10T10:15:46.464Z,1.67
2019-02-10T10:18:49.656Z,1.20
2019-02-10T10:21:52.747Z,2.07
2019-02-10T10:24:55.939Z,1.90
2019-02-10T10:27:59.139Z,1.47
2019-02-10T10:31:02.233Z,1.90
2019-02-10T10:34:05.419Z,1.10
2019-02-10T10:37:08.949Z,1.53
2019-02-10T10:40:12.149Z,1.97
2019-02-10T10:43:15.219Z,1.23
2019-02-10T10:46:18.381Z,5.23
2019-02-10T10:49:21.484Z,2.20
2019-02-10T10:52:24.567Z,2.07
2019-02-10T10:55:27.674Z,1.43
2019-02-10T10:58:30.784Z,1.50
2019-02-10T11:01:33.855Z,3.20
2019-02-10T11:04:38.099Z,4.43
2019-02-10T11:07:42.832Z,3.90
2019-02-10T11:10:46.009Z,2.17
2019-02-10T11:13:49.203Z,1.73
2019-02-10T11:16:52.316Z,2.60
2019-02-10T11:19:55.500Z,2.33
2019-02-10T11:22:58.683Z,1.30
2019-02-10T11:26:01.858Z,1.67
2019-02-10T11:29:04.965Z,1.33
2019-02-10T11:32:08.028Z,1.23
2019-02-10T11:35:11.151Z,3.47
2019-02-10T11:38:14.240Z,1.57
2019-02-10T11:41:17.421Z,2.10
2019-02-10T11:44:20.527Z,2.30
2019-02-10T11:47:23.647Z,3.53
2019-02-10T11:50:26.818Z,1.70
2019-02-10T11:53:29.879Z,1.33
2019-02-10T11:56:32.976Z,1.33
2019-02-10T11:59:36.275Z,1.57
2019-02-10T12:02:39.347Z,1.77
2019-02-10T12:05:42.460Z,1.57
2019-02-10T12:08:45.579Z,1.40
2019-02-10T12:11:48.759Z,2.23
2019-02-10T12:14:51.912Z,1.40
2019-02-10T12:17:55.079Z,2.80
2019-02-10T12:20:58.199Z,1.30
2019-02-10T12:24:01.339Z,4.07
2019-02-10T12:27:04.425Z,2.07
2019-02-10T12:30:09.805Z,7.53
2019-02-10T12:33:12.871Z,3.13
2019-02-10T12:36:15.986Z,3.13
2019-02-10T12:39:19.035Z,2.47
2019-02-10T12:42:22.144Z,2.40
2019-02-10T12:45:25.408Z,4.53
2019-02-10T12:48:28.537Z,2.87
2019-02-10T12:51:31.599Z,5.93
2019-02-10T12:54:34.824Z,2.87
2019-02-10T12:57:37.906Z,2.30
2019-02-10T13:00:41.030Z,2.27
2019-02-10T13:03:44.187Z,1.90
2019-02-10T13:06:47.263Z,2.60
2019-02-10T13:09:50.387Z,2.53
2019-02-10T13:12:53.613Z,3.20
2019-02-10T13:15:56.659Z,2.30
2019-02-10T13:18:59.760Z,2.40
2019-02-10T13:22:02.855Z,2.80
2019-02-10T13:25:06.068Z,2.50
2019-02-10T13:28:09.233Z,2.63
2019-02-10T13:31:12.315Z,2.00
2019-02-10T13:34:15.421Z,1.77
2019-02-10T13:37:18.503Z,1.53
2019-02-10T13:40:21.599Z,3.50
2019-02-10T13:43:24.693Z,2.80
2019-02-10T13:46:27.792Z,2.50
2019-02-10T13:49:30.992Z,1.47
2019-02-10T13:52:34.554Z,6.37
2019-02-10T13:55:37.848Z,1.87
2019-02-10T13:58:41.851Z,1.97
2019-02-10T14:01:44.987Z,2.60
2019-02-10T14:04:48.091Z,1.80
2019-02-10T14:07:51.441Z,1.73
2019-02-10T14:10:54.263Z,1.77
2019-02-10T14:13:57.359Z,4.93
2019-02-10T14:17:01.899Z,1.60
2019-02-10T14:20:04.604Z,1.10
2019-02-10T14:23:07.789Z,1.90
2019-02-10T14:26:10.948Z,1.67
2019-02-10T14:29:14.039Z,1.83
2019-02-10T14:32:17.121Z,3.43
2019-02-10T14:35:20.338Z,1.77
2019-02-10T14:38:24.729Z,2.77
2019-02-10T14:41:26.643Z,3.00
2019-02-10T14:44:29.708Z,3.40
2019-02-10T14:47:32.780Z,2.63
2019-02-10T14:50:35.840Z,5.87
2019-02-10T14:53:38.902Z,1.00
2019-02-10T14:56:41.940Z,3.70
2019-02-10T14:59:45.059Z,2.93
2019-02-10T15:02:48.160Z,2.87
2019-02-10T15:05:51.243Z,5.23
2019-02-10T15:08:54.341Z,5.40
2019-02-10T15:11:57.445Z,4.10
2019-02-10T15:15:00.528Z,3.30
2019-02-10T15:18:03.639Z,3.47
2019-02-10T15:21:06.718Z,1.70
2019-02-10T15:24:09.907Z,3.17
2019-02-10T15:27:12.993Z,2.60
2019-02-10T15:30:16.116Z,2.30
2019-02-10T15:33:19.178Z,1.53
2019-02-10T15:36:22.241Z,1.17
2019-02-10T15:39:25.386Z,1.27
2019-02-10T15:42:28.436Z,0.47
2019-02-10T15:45:31.546Z,1.70
2019-02-10T15:48:34.643Z,2.13
2019-02-10T15:51:37.707Z,0.83
2019-02-10T15:54:40.767Z,1.63
2019-02-10T15:57:43.942Z,4.07
2019-02-10T16:00:47.133Z,0.80
2019-02-10T16:03:50.316Z,0.70
2019-02-10T16:06:53.392Z,1.70
2019-02-10T16:09:56.490Z,0.93
2019-02-10T16:12:59.579Z,0.97
2019-02-10T16:16:02.652Z,1.07
2019-02-10T16:19:05.722Z,0.80
2019-02-10T16:22:08.855Z,0.33
2019-02-10T16:25:11.954Z,2.30
2019-02-10T16:28:15.147Z,1.43
2019-02-10T16:31:18.250Z,0.40
2019-02-10T16:34:21.306Z,0.37
2019-02-10T16:37:24.371Z,0.83
2019-02-10T16:40:27.543Z,0.50
2019-02-10T16:43:30.704Z,0.57
2019-02-10T16:46:33.812Z,1.30
2019-02-10T16:49:36.950Z,1.13
2019-02-10T16:52:40.124Z,1.07
2019-02-10T16:55:43.284Z,0.43
2019-02-10T16:58:46.375Z,0.67
2019-02-10T17:01:49.484Z,0.60
2019-02-10T17:04:52.591Z,0.70
2019-02-10T17:07:55.758Z,0.90
2019-02-10T17:10:58.880Z,0.63
2019-02-10T17:14:02.028Z,0.83
2019-02-10T17:17:05.151Z,1.03
2019-02-10T17:20:08.723Z,1.00
2019-02-10T17:23:11.923Z,1.07
2019-02-10T17:26:15.019Z,0.90
2019-02-10T17:29:18.295Z,1.20
2019-02-10T17:32:21.478Z,1.20
2019-02-10T17:35:24.652Z,0.73
2019-02-10T17:38:27.754Z,1.77
2019-02-10T17:41:35.260Z,0.83
2019-02-10T17:44:38.450Z,0.70
2019-02-10T17:47:41.521Z,0.70
2019-02-10T17:50:44.592Z,1.23
2019-02-10T17:53:47.660Z,2.60
2019-02-10T17:56:50.719Z,1.53
2019-02-10T17:59:53.841Z,0.90
2019-02-10T18:02:56.934Z,0.70
2019-02-10T18:06:00.021Z,1.07
2019-02-10T18:09:03.140Z,0.60
2019-02-10T18:12:06.291Z,1.20
2019-02-10T18:17:16.756Z,1.07
2019-02-10T18:20:25.951Z,0.60
2019-02-10T18:23:39.216Z,0.50
2019-02-10T18:26:59.391Z,0.63
2019-02-10T18:30:07.836Z,0.50
2019-02-10T18:33:16.398Z,1.60
2019-02-10T18:36:23.655Z,0.43
2019-02-10T18:39:31.938Z,0.83
2019-02-10T18:42:41.228Z,1.33
2019-02-10T18:45:48.528Z,0.83
2019-02-10T18:49:00.885Z,1.20
2019-02-10T18:52:11.216Z,0.40
2019-02-10T18:55:38.501Z,1.03
2019-02-10T18:58:53.987Z,1.70
2019-02-10T19:01:54.215Z,0.43
2019-02-10T19:05:05.504Z,1.27
2019-02-10T19:08:14.689Z,0.97
2019-02-10T19:11:24.828Z,2.97
2019-02-10T19:14:50.024Z,1.07
2019-02-10T19:18:00.155Z,0.93
2019-02-10T19:21:10.479Z,1.53
2019-02-10T19:24:35.763Z,1.57
2019-02-10T19:28:48.187Z,1.30
2019-02-10T19:32:00.527Z,2.33
2019-02-10T19:35:09.227Z,1.27
2019-02-10T19:39:17.423Z,0.90
2019-02-10T19:42:30.599Z,2.90
2019-02-10T19:45:39.136Z,3.03
2019-02-10T19:50:49.613Z,1.30
2019-02-10T19:55:59.086Z,1.03
2019-02-10T19:59:07.486Z,2.60
2019-02-10T20:02:20.320Z,1.37
2019-02-10T20:05:27.149Z,2.00
2019-02-10T20:08:35.514Z,4.27
2019-02-10T20:11:44.711Z,2.40
2019-02-10T20:14:52.116Z,1.00
2019-02-10T20:18:03.432Z,1.43
2019-02-10T20:21:12.026Z,2.97
2019-02-10T20:24:19.267Z,1.53
2019-02-10T20:27:27.871Z,0.70
2019-02-10T20:30:36.407Z,1.33
2019-02-10T20:34:14.712Z,1.57
2019-02-10T20:37:22.862Z,2.30
2019-02-10T20:40:30.216Z,1.93
2019-02-10T20:43:43.440Z,1.20
2019-02-10T20:46:53.776Z,0.80
2019-02-10T20:50:01.015Z,1.03
2019-02-10T20:54:13.308Z,1.63
2019-02-10T20:57:20.599Z,3.40
2019-02-10T21:00:28.693Z,0.50
2019-02-10T21:03:39.883Z,0.50
2019-02-10T21:06:47.203Z,0.60
2019-02-10T21:11:57.580Z,1.17
2019-02-10T21:15:06.834Z,0.80
2019-02-10T21:18:20.127Z,0.40
2019-02-10T21:21:28.458Z,0.50
2019-02-10T21:24:36.948Z,1.37
2019-02-10T21:27:44.255Z,0.40
2019-02-10T21:30:52.746Z,2.83
2019-02-10T21:34:05.075Z,0.60
2019-02-10T21:37:16.331Z,1.33
2019-02-10T21:40:24.728Z,0.53
2019-02-10T21:43:35.073Z,0.50
2019-02-10T21:46:46.335Z,1.13
2019-02-10T21:49:49.443Z,1.70
2019-02-10T21:52:52.549Z,0.50
2019-02-10T21:55:55.725Z,0.57
2019-02-10T21:58:58.856Z,0.50
2019-02-10T22:02:02.041Z,0.60
2019-02-10T22:05:05.636Z,1.20
2019-02-10T22:08:08.707Z,0.70
2019-02-10T22:11:11.807Z,0.60
2019-02-10T22:14:14.943Z,1.40
2019-02-10T22:17:18.112Z,0.83
2019-02-10T22:20:21.305Z,0.60
2019-02-10T22:23:24.464Z,0.60
2019-02-10T22:26:27.563Z,1.47
2019-02-10T22:29:30.659Z,0.77
2019-02-10T22:32:33.751Z,1.20
2019-02-10T22:35:36.854Z,0.90
2019-02-10T22:38:40.862Z,0.70
2019-02-10T22:41:43.940Z,1.03
2019-02-10T22:44:47.011Z,0.83
2019-02-10T22:47:50.150Z,1.17
2019-02-10T22:50:53.207Z,1.43
2019-02-10T22:53:56.322Z,1.13
2019-02-10T22:56:59.410Z,1.07
2019-02-10T23:00:02.502Z,0.87
2019-02-10T23:03:05.599Z,0.60
2019-02-10T23:06:08.692Z,3.67
2019-02-10T23:09:16.795Z,2.10
2019-02-10T23:12:19.901Z,1.40
2019-02-10T23:15:22.987Z,0.97
2019-02-10T23:18:26.075Z,0.50
2019-02-10T23:21:29.143Z,2.23
2019-02-10T23:24:32.268Z,0.40
2019-02-10T23:27:35.340Z,1.40
2019-02-10T23:30:38.459Z,0.67
2019-02-10T23:33:41.563Z,0.60
2019-02-10T23:36:44.742Z,0.50
2019-02-10T23:39:47.836Z,1.33
2019-02-10T23:42:50.935Z,1.50
2019-02-10T23:45:54.124Z,1.20
2019-02-10T23:48:57.211Z,0.63
2019-02-10T23:52:00.310Z,0.80
2019-02-10T23:55:03.389Z,1.33
2019-02-10T23:58:06.472Z,0.60
